PWSweather.com
Personal Weather Stations
Station Observations
W0CHP
Plainview, MN 55694

Plainview, MN 55694

Lat: 44.16640472, Lon: -92.16882324

Elevation: 1155

Station Type: HW: WX Station Bridge, Raspberry Pi and RF (APRS) via 144.390 MHz. SW: Xastir, APRX, WeeWX and Linux.

http://wx.w0chp.net

Latest ConditionsUpdated 8:34:00 PM CST Saturday, Dec 15, 2018
Currently Today's Max Today's Min Today's Average
Temperature 30.3°F-0.9°C 39.0°F3.9°C 17.9°F-7.8°C 28.9°F-1.7°C
Dew Point 28.0°F-2.2°C 31.5°F-0.3°C 17.4°F-8.1°C 25.2°F-3.8°C
Winds 4.0 mph S6.4 kmh S 9.2 mph -14.8 kmh - - 3.2 mph 5.1 kmh
Wind Gusts 4.0 mph6.4 kmh 10.0 mph16.1 kmh - -
Humidity 91% 98% 70% 87%
Pressure 30.19 in1022.4 mb 30.30 in1026.1 mb 30.18 in1022.0 mb -
Precipitation - 0.04 in1.0 mm - -
Hour Temp Dew Point Humidity Winds Wind Gusts Pressure Precip Precip Rate Daily Precip Total
08:34 PM 30.3°F-0.9°C 28.0°F-2.2°C 91% 4.0 mph S6.4 kmh S 4.0 mph6.4 kmh 30.19 in1022.4 mb 0.00 in0.0 mm 0.00 in0.0 mm 0.04 in1.0 mm
08:28 PM 30.3°F-0.9°C 28.0°F-2.2°C 91% 4.5 mph SSE7.2 kmh SSE 6.0 mph9.7 kmh 30.18 in1022.0 mb 0.00 in0.0 mm 0.00 in0.0 mm 0.04 in1.0 mm
08:22 PM 30.3°F-0.9°C 28.0°F-2.2°C 91% 3.7 mph SSE6.0 kmh SSE 4.0 mph6.4 kmh 30.19 in1022.4 mb 0.00 in0.0 mm 0.00 in0.0 mm 0.04 in1.0 mm
08:16 PM 29.7°F-1.3°C 27.4°F-2.6°C 91% 4.0 mph SSE6.4 kmh SSE 5.0 mph8.0 kmh 30.19 in1022.4 mb 0.00 in0.0 mm 0.00 in0.0 mm 0.04 in1.0 mm
08:10 PM 29.6°F-1.3°C 27.3°F-2.6°C 91% 3.8 mph SSE6.1 kmh SSE 5.0 mph8.0 kmh 30.19 in1022.4 mb 0.00 in0.0 mm 0.00 in0.0 mm 0.04 in1.0 mm
08:04 PM 29.6°F-1.3°C 27.3°F-2.6°C 91% 3.9 mph S6.3 kmh S 5.0 mph8.0 kmh 30.20 in1022.7 mb 0.00 in0.0 mm 0.00 in0.0 mm 0.04 in1.0 mm
07:58 PM 30.3°F-0.9°C 28.0°F-2.2°C 91% 4.3 mph S6.9 kmh S 5.0 mph8.0 kmh 30.20 in1022.7 mb 0.00 in0.0 mm 0.00 in0.0 mm 0.04 in1.0 mm
07:52 PM 30.3°F-0.9°C 28.0°F-2.2°C 91% 3.1 mph S5.0 kmh S 4.0 mph6.4 kmh 30.21 in1023.0 mb 0.00 in0.0 mm 0.00 in0.0 mm 0.04 in1.0 mm
07:46 PM 29.9°F-1.2°C 27.6°F-2.4°C 91% 2.8 mph S4.5 kmh S 4.0 mph6.4 kmh 30.21 in1023.0 mb 0.00 in0.0 mm 0.00 in0.0 mm 0.04 in1.0 mm
07:40 PM 30.0°F-1.1°C 27.7°F-2.4°C 91% 2.8 mph SSE4.5 kmh SSE 4.0 mph6.4 kmh 30.22 in1023.4 mb 0.00 in0.0 mm 0.00 in0.0 mm 0.04 in1.0 mm
07:34 PM 30.0°F-1.1°C 27.7°F-2.4°C 91% 2.9 mph SSE4.7 kmh SSE 4.0 mph6.4 kmh 30.21 in1023.0 mb 0.00 in0.0 mm 0.00 in0.0 mm 0.04 in1.0 mm
07:28 PM 29.6°F-1.3°C 27.3°F-2.6°C 91% 2.3 mph S3.7 kmh S 3.0 mph4.8 kmh 30.20 in1022.7 mb 0.00 in0.0 mm 0.00 in0.0 mm 0.04 in1.0 mm
07:22 PM 29.6°F-1.3°C 27.3°F-2.6°C 91% 2.4 mph S3.9 kmh S 3.0 mph4.8 kmh 30.21 in1023.0 mb 0.00 in0.0 mm 0.00 in0.0 mm 0.04 in1.0 mm
07:16 PM 29.8°F-1.2°C 27.2°F-2.7°C 90% 1.8 mph S2.9 kmh S 2.0 mph3.2 kmh 30.20 in1022.7 mb 0.00 in0.0 mm 0.00 in0.0 mm 0.04 in1.0 mm
07:10 PM 29.8°F-1.2°C 27.2°F-2.7°C 90% 2.1 mph S3.4 kmh S 3.0 mph4.8 kmh 30.20 in1022.7 mb 0.00 in0.0 mm 0.00 in0.0 mm 0.04 in1.0 mm
07:04 PM 29.8°F-1.2°C 27.1°F-2.7°C 89% 2.0 mph S3.2 kmh S 2.0 mph3.2 kmh 30.20 in1022.7 mb 0.00 in0.0 mm 0.00 in0.0 mm 0.04 in1.0 mm
06:58 PM 30.0°F-1.1°C 26.9°F-2.8°C 88% 2.1 mph SSE3.4 kmh SSE 3.0 mph4.8 kmh 30.20 in1022.7 mb 0.00 in0.0 mm 0.00 in0.0 mm 0.04 in1.0 mm
06:52 PM 30.1°F-1.1°C 27.0°F-2.8°C 88% 2.3 mph S3.7 kmh S 3.0 mph4.8 kmh 30.20 in1022.7 mb 0.00 in0.0 mm 0.00 in0.0 mm 0.04 in1.0 mm
06:46 PM 30.1°F-1.1°C 27.0°F-2.8°C 88% 2.2 mph S3.5 kmh S 3.0 mph4.8 kmh 30.20 in1022.7 mb 0.00 in0.0 mm 0.00 in0.0 mm 0.04 in1.0 mm
06:40 PM 30.4°F-0.9°C 27.2°F-2.7°C 88% 2.5 mph S4.0 kmh S 3.0 mph4.8 kmh 30.20 in1022.7 mb 0.00 in0.0 mm 0.00 in0.0 mm 0.04 in1.0 mm
06:34 PM 30.3°F-0.9°C 27.2°F-2.7°C 88% 3.1 mph S5.0 kmh S 4.0 mph6.4 kmh 30.20 in1022.7 mb 0.00 in0.0 mm 0.00 in0.0 mm 0.04 in1.0 mm
06:28 PM 30.6°F-0.8°C 27.0°F-2.8°C 86% 2.1 mph S3.4 kmh S 3.0 mph4.8 kmh 30.21 in1023.0 mb 0.00 in0.0 mm 0.00 in0.0 mm 0.04 in1.0 mm
06:22 PM 31.1°F-0.5°C 27.4°F-2.6°C 86% 2.0 mph S3.2 kmh S 2.0 mph3.2 kmh 30.21 in1023.0 mb 0.00 in0.0 mm 0.00 in0.0 mm 0.04 in1.0 mm
06:16 PM 31.5°F-0.3°C 27.8°F-2.3°C 86% 1.9 mph SSE3.1 kmh SSE 3.0 mph4.8 kmh 30.21 in1023.0 mb 0.00 in0.0 mm 0.00 in0.0 mm 0.04 in1.0 mm
06:10 PM 31.5°F-0.3°C 27.8°F-2.3°C 86% 2.0 mph SSE3.2 kmh SSE 3.0 mph4.8 kmh 30.21 in1023.0 mb 0.00 in0.0 mm 0.00 in0.0 mm 0.04 in1.0 mm
06:04 PM 31.1°F-0.5°C 27.4°F-2.6°C 86% 2.0 mph S3.2 kmh S 2.0 mph3.2 kmh 30.21 in1023.0 mb 0.00 in0.0 mm 0.00 in0.0 mm 0.04 in1.0 mm
05:58 PM 31.2°F-0.4°C 27.5°F-2.5°C 86% 1.2 mph S1.9 kmh S 2.0 mph3.2 kmh 30.22 in1023.4 mb 0.00 in0.0 mm 0.00 in0.0 mm 0.04 in1.0 mm
05:52 PM 31.8°F-0.1°C 27.8°F-2.3°C 85% 2.0 mph S3.2 kmh S 2.0 mph3.2 kmh 30.22 in1023.4 mb 0.00 in0.0 mm 0.00 in0.0 mm 0.04 in1.0 mm
05:46 PM 32.2°F0.1°C 27.6°F-2.4°C 83% 2.2 mph S3.5 kmh S 3.0 mph4.8 kmh 30.22 in1023.4 mb 0.00 in0.0 mm 0.00 in0.0 mm 0.04 in1.0 mm
05:40 PM 32.6°F0.3°C 28.0°F-2.2°C 83% 2.0 mph SSE3.2 kmh SSE 3.0 mph4.8 kmh 30.22 in1023.4 mb 0.00 in0.0 mm 0.00 in0.0 mm 0.04 in1.0 mm
05:34 PM 33.1°F0.6°C 28.5°F-1.9°C 83% 2.2 mph SE3.5 kmh SE 3.0 mph4.8 kmh 30.22 in1023.4 mb 0.00 in0.0 mm 0.00 in0.0 mm 0.04 in1.0 mm
05:28 PM 33.4°F0.8°C 28.8°F-1.8°C 83% 2.4 mph SE3.9 kmh SE 3.0 mph4.8 kmh 30.22 in1023.4 mb 0.00 in0.0 mm 0.00 in0.0 mm 0.04 in1.0 mm
05:22 PM 33.6°F0.9°C 29.0°F-1.7°C 83% 2.1 mph S3.4 kmh S 3.0 mph4.8 kmh 30.22 in1023.4 mb 0.00 in0.0 mm 0.00 in0.0 mm 0.04 in1.0 mm
05:16 PM 33.8°F1.0°C 29.2°F-1.6°C 83% 2.2 mph S3.5 kmh S 3.0 mph4.8 kmh 30.21 in1023.0 mb 0.00 in0.0 mm 0.00 in0.0 mm 0.04 in1.0 mm
05:10 PM 33.8°F1.0°C 29.2°F-1.6°C 83% 2.0 mph SSE3.2 kmh SSE 3.0 mph4.8 kmh 30.22 in1023.4 mb 0.00 in0.0 mm 0.00 in0.0 mm 0.04 in1.0 mm
05:04 PM 34.0°F1.1°C 28.8°F-1.8°C 81% 2.0 mph S3.2 kmh S 2.0 mph3.2 kmh 30.21 in1023.0 mb 0.00 in0.0 mm 0.00 in0.0 mm 0.04 in1.0 mm
04:58 PM 34.2°F1.2°C 29.0°F-1.7°C 81% 2.4 mph S3.9 kmh S 3.0 mph4.8 kmh 30.22 in1023.4 mb 0.00 in0.0 mm 0.00 in0.0 mm 0.04 in1.0 mm
04:52 PM 34.5°F1.4°C 29.3°F-1.5°C 81% 3.0 mph SSE4.8 kmh SSE 4.0 mph6.4 kmh 30.23 in1023.7 mb 0.00 in0.0 mm 0.00 in0.0 mm 0.04 in1.0 mm
04:46 PM 34.7°F1.5°C 29.5°F-1.4°C 81% 3.0 mph S4.8 kmh S 4.0 mph6.4 kmh 30.23 in1023.7 mb 0.00 in0.0 mm 0.00 in0.0 mm 0.04 in1.0 mm
04:40 PM 34.9°F1.6°C 29.7°F-1.3°C 81% 2.7 mph SSE4.3 kmh SSE 4.0 mph6.4 kmh 30.23 in1023.7 mb 0.00 in0.0 mm 0.00 in0.0 mm 0.04 in1.0 mm
04:34 PM 35.0°F1.7°C 29.8°F-1.2°C 81% 2.3 mph S3.7 kmh S 3.0 mph4.8 kmh 30.23 in1023.7 mb 0.00 in0.0 mm 0.00 in0.0 mm 0.04 in1.0 mm
04:28 PM 35.5°F1.9°C 30.0°F-1.1°C 80% 2.0 mph S3.2 kmh S 2.0 mph3.2 kmh 30.23 in1023.7 mb 0.00 in0.0 mm 0.00 in0.0 mm 0.04 in1.0 mm
04:22 PM 36.1°F2.3°C 30.3°F-0.9°C 79% 2.0 mph S3.2 kmh S 3.0 mph4.8 kmh 30.24 in1024.0 mb 0.00 in0.0 mm 0.00 in0.0 mm 0.04 in1.0 mm
04:16 PM 36.8°F2.7°C 30.0°F-1.1°C 76% 2.7 mph S4.3 kmh S 3.0 mph4.8 kmh 30.24 in1024.0 mb 0.00 in0.0 mm 0.00 in0.0 mm 0.04 in1.0 mm
04:10 PM 37.1°F2.8°C 30.2°F-1.0°C 76% 2.7 mph S4.3 kmh S 3.0 mph4.8 kmh 30.24 in1024.0 mb 0.01 in0.3 mm 0.00 in0.0 mm 0.04 in1.0 mm
04:04 PM 37.4°F3.0°C 30.2°F-1.0°C 75% 3.0 mph SSW4.8 kmh SSW 3.0 mph4.8 kmh 30.23 in1023.7 mb 0.01 in0.3 mm 0.00 in0.0 mm 0.04 in1.0 mm
03:58 PM 37.7°F3.2°C 30.5°F-0.8°C 75% 2.4 mph SSE3.9 kmh SSE 3.0 mph4.8 kmh 30.24 in1024.0 mb 0.01 in0.3 mm 0.00 in0.0 mm 0.04 in1.0 mm
03:52 PM 37.8°F3.2°C 30.6°F-0.8°C 75% 2.7 mph S4.3 kmh S 3.0 mph4.8 kmh 30.23 in1023.7 mb 0.01 in0.3 mm 0.00 in0.0 mm 0.04 in1.0 mm
03:46 PM 38.0°F3.3°C 30.8°F-0.7°C 75% 2.8 mph SSW4.5 kmh SSW 4.0 mph6.4 kmh 30.23 in1023.7 mb 0.01 in0.3 mm 0.00 in0.0 mm 0.04 in1.0 mm
03:40 PM 38.2°F3.4°C 31.0°F-0.6°C 75% 3.8 mph S6.1 kmh S 5.0 mph8.0 kmh 30.23 in1023.7 mb 0.01 in0.3 mm 0.00 in0.0 mm 0.04 in1.0 mm
03:34 PM 38.3°F3.5°C 31.1°F-0.5°C 75% 3.0 mph S4.8 kmh S 4.0 mph6.4 kmh 30.23 in1023.7 mb 0.01 in0.3 mm 0.00 in0.0 mm 0.04 in1.0 mm
03:28 PM 38.4°F3.6°C 31.2°F-0.4°C 75% 2.7 mph S4.3 kmh S 3.0 mph4.8 kmh 30.23 in1023.7 mb 0.01 in0.3 mm 0.00 in0.0 mm 0.04 in1.0 mm
03:22 PM 38.4°F3.6°C 31.2°F-0.4°C 75% 3.2 mph S5.1 kmh S 4.0 mph6.4 kmh 30.23 in1023.7 mb 0.01 in0.3 mm 0.00 in0.0 mm 0.04 in1.0 mm
03:16 PM 38.7°F3.7°C 31.5°F-0.3°C 75% 3.8 mph S6.1 kmh S 4.0 mph6.4 kmh 30.23 in1023.7 mb 0.01 in0.3 mm 0.10 in2.5 mm 0.04 in1.0 mm
03:10 PM 38.7°F3.7°C 31.1°F-0.5°C 74% 3.2 mph SSE5.1 kmh SSE 5.0 mph8.0 kmh 30.23 in1023.7 mb 0.00 in0.0 mm 0.00 in0.0 mm 0.03 in0.8 mm
03:04 PM 38.7°F3.7°C 31.1°F-0.5°C 74% 4.1 mph S6.6 kmh S 5.0 mph8.0 kmh 30.22 in1023.4 mb 0.01 in0.3 mm 0.00 in0.0 mm 0.03 in0.8 mm
02:58 PM 39.0°F3.9°C 31.4°F-0.3°C 74% 3.4 mph S5.5 kmh S 4.0 mph6.4 kmh 30.22 in1023.4 mb 0.01 in0.3 mm 0.00 in0.0 mm 0.03 in0.8 mm
02:52 PM 39.0°F3.9°C 31.4°F-0.3°C 74% 3.3 mph SSE5.3 kmh SSE 4.0 mph6.4 kmh 30.23 in1023.7 mb 0.01 in0.3 mm 0.00 in0.0 mm 0.03 in0.8 mm
02:46 PM 39.0°F3.9°C 31.4°F-0.3°C 74% 4.3 mph SE6.9 kmh SE 5.0 mph8.0 kmh 30.23 in1023.7 mb 0.01 in0.3 mm 0.00 in0.0 mm 0.03 in0.8 mm
02:40 PM 39.0°F3.9°C 31.4°F-0.3°C 74% 3.7 mph S6.0 kmh S 4.0 mph6.4 kmh 30.22 in1023.4 mb 0.01 in0.3 mm 0.00 in0.0 mm 0.03 in0.8 mm
02:34 PM 39.0°F3.9°C 31.2°F-0.4°C 73% 3.9 mph S6.3 kmh S 5.0 mph8.0 kmh 30.22 in1023.4 mb 0.01 in0.3 mm 0.00 in0.0 mm 0.03 in0.8 mm
02:28 PM 39.0°F3.9°C 31.1°F-0.5°C 73% 3.5 mph S5.6 kmh S 4.0 mph6.4 kmh 30.22 in1023.4 mb 0.01 in0.3 mm 0.00 in0.0 mm 0.03 in0.8 mm
02:22 PM 39.0°F3.9°C 31.1°F-0.5°C 73% 4.7 mph S7.6 kmh S 6.0 mph9.7 kmh 30.23 in1023.7 mb 0.01 in0.3 mm 0.00 in0.0 mm 0.03 in0.8 mm
02:16 PM 39.0°F3.9°C 30.4°F-0.9°C 71% 4.1 mph SSE6.6 kmh SSE 5.0 mph8.0 kmh 30.23 in1023.7 mb 0.02 in0.5 mm 0.00 in0.0 mm 0.03 in0.8 mm
02:10 PM 39.0°F3.9°C 30.4°F-0.9°C 71% 4.7 mph SSW7.6 kmh SSW 6.0 mph9.7 kmh 30.23 in1023.7 mb 0.02 in0.5 mm 0.10 in2.5 mm 0.03 in0.8 mm
02:04 PM 38.9°F3.8°C 30.3°F-0.9°C 71% 4.6 mph S7.4 kmh S 6.0 mph9.7 kmh 30.23 in1023.7 mb 0.01 in0.3 mm 0.00 in0.0 mm 0.02 in0.5 mm
01:58 PM 39.0°F3.9°C 31.1°F-0.5°C 73% 4.1 mph S6.6 kmh S 6.0 mph9.7 kmh 30.22 in1023.4 mb 0.01 in0.3 mm 0.00 in0.0 mm 0.02 in0.5 mm
01:52 PM 39.0°F3.9°C 30.9°F-0.6°C 72% 3.8 mph S6.1 kmh S 5.0 mph8.0 kmh 30.22 in1023.4 mb 0.01 in0.3 mm 0.00 in0.0 mm 0.02 in0.5 mm
01:46 PM 38.8°F3.8°C 30.2°F-1.0°C 71% 4.0 mph S6.4 kmh S 5.0 mph8.0 kmh 30.23 in1023.7 mb 0.01 in0.3 mm 0.00 in0.0 mm 0.02 in0.5 mm
01:40 PM 38.7°F3.7°C 30.1°F-1.1°C 71% 4.3 mph SE6.9 kmh SE 5.0 mph8.0 kmh 30.23 in1023.7 mb 0.01 in0.3 mm 0.00 in0.0 mm 0.02 in0.5 mm
01:34 PM 38.7°F3.7°C 30.1°F-1.1°C 71% 5.8 mph S9.3 kmh S 7.0 mph11.3 kmh 30.21 in1023.0 mb 0.01 in0.3 mm 0.00 in0.0 mm 0.02 in0.5 mm
01:28 PM 38.6°F3.7°C 30.0°F-1.1°C 71% 5.1 mph S8.2 kmh S 7.0 mph11.3 kmh 30.22 in1023.4 mb 0.02 in0.5 mm 0.00 in0.0 mm 0.02 in0.5 mm
01:22 PM 38.7°F3.7°C 29.8°F-1.2°C 70% 5.7 mph S9.2 kmh S 6.0 mph9.7 kmh 30.23 in1023.7 mb 0.02 in0.5 mm 0.10 in2.5 mm 0.02 in0.5 mm
01:16 PM 38.7°F3.7°C 29.8°F-1.2°C 70% 5.9 mph SSE9.5 kmh SSE 7.0 mph11.3 kmh 30.24 in1024.0 mb 0.01 in0.3 mm 0.00 in0.0 mm 0.01 in0.3 mm
01:10 PM 38.7°F3.7°C 29.8°F-1.2°C 70% 5.5 mph S8.9 kmh S 7.0 mph11.3 kmh 30.24 in1024.0 mb 0.01 in0.3 mm 0.00 in0.0 mm 0.01 in0.3 mm
01:04 PM 38.7°F3.7°C 29.8°F-1.2°C 70% 5.4 mph SSE8.7 kmh SSE 6.0 mph9.7 kmh 30.24 in1024.0 mb 0.01 in0.3 mm 0.00 in0.0 mm 0.01 in0.3 mm
12:58 PM 38.7°F3.7°C 29.8°F-1.2°C 70% 6.2 mph S10.0 kmh S 7.0 mph11.3 kmh 30.24 in1024.0 mb 0.01 in0.3 mm 0.00 in0.0 mm 0.01 in0.3 mm
12:52 PM 38.7°F3.7°C 29.8°F-1.2°C 70% 6.4 mph S10.3 kmh S 8.0 mph12.9 kmh 30.25 in1024.4 mb 0.01 in0.3 mm 0.00 in0.0 mm 0.01 in0.3 mm
12:46 PM 38.7°F3.7°C 30.0°F-1.1°C 71% 5.0 mph S8.0 kmh S 6.0 mph9.7 kmh 30.24 in1024.0 mb 0.01 in0.3 mm 0.00 in0.0 mm 0.01 in0.3 mm
12:40 PM 38.7°F3.7°C 30.1°F-1.1°C 71% 3.7 mph SSW6.0 kmh SSW 5.0 mph8.0 kmh 30.24 in1024.0 mb 0.01 in0.3 mm 0.00 in0.0 mm 0.01 in0.3 mm
12:34 PM 38.2°F3.4°C 29.6°F-1.3°C 71% 4.0 mph S6.4 kmh S 6.0 mph9.7 kmh 30.24 in1024.0 mb 0.01 in0.3 mm 0.10 in2.5 mm 0.01 in0.3 mm
12:28 PM 37.9°F3.3°C 29.3°F-1.5°C 71% 4.0 mph S6.4 kmh S 5.0 mph8.0 kmh 30.23 in1023.7 mb 0.00 in0.0 mm 0.00 in0.0 mm 0.00 in0.0 mm
12:22 PM 37.7°F3.2°C 29.2°F-1.6°C 71% 5.4 mph S8.7 kmh S 7.0 mph11.3 kmh 30.24 in1024.0 mb 0.00 in0.0 mm 0.00 in0.0 mm 0.00 in0.0 mm
12:16 PM 37.7°F3.2°C 29.2°F-1.6°C 71% 6.0 mph SSW9.7 kmh SSW 7.0 mph11.3 kmh 30.24 in1024.0 mb 0.00 in0.0 mm 0.00 in0.0 mm 0.00 in0.0 mm
12:10 PM 37.4°F3.0°C 28.9°F-1.7°C 71% 6.0 mph S9.7 kmh S 7.0 mph11.3 kmh 30.23 in1023.7 mb 0.00 in0.0 mm 0.00 in0.0 mm 0.00 in0.0 mm
12:04 PM 37.4°F3.0°C 29.2°F-1.6°C 72% 9.2 mph SSW14.8 kmh SSW 10.0 mph16.1 kmh 30.24 in1024.0 mb 0.00 in0.0 mm 0.00 in0.0 mm 0.00 in0.0 mm
11:58 AM 37.2°F2.9°C 29.4°F-1.4°C 73% 5.3 mph SE8.5 kmh SE 7.0 mph11.3 kmh 30.25 in1024.4 mb 0.00 in0.0 mm 0.00 in0.0 mm 0.00 in0.0 mm
11:52 AM 37.2°F2.9°C 29.4°F-1.4°C 73% 6.1 mph S9.8 kmh S 9.0 mph14.5 kmh 30.25 in1024.4 mb 0.00 in0.0 mm 0.00 in0.0 mm 0.00 in0.0 mm
11:46 AM 37.0°F2.8°C 29.5°F-1.4°C 74% 5.6 mph S9.0 kmh S 7.0 mph11.3 kmh 30.25 in1024.4 mb 0.00 in0.0 mm 0.00 in0.0 mm 0.00 in0.0 mm
11:40 AM 36.5°F2.5°C 29.4°F-1.4°C 75% 6.1 mph S9.8 kmh S 8.0 mph12.9 kmh 30.25 in1024.4 mb 0.00 in0.0 mm 0.00 in0.0 mm 0.00 in0.0 mm
11:34 AM 36.1°F2.3°C 29.0°F-1.7°C 75% 4.8 mph S7.7 kmh S 7.0 mph11.3 kmh 30.25 in1024.4 mb 0.00 in0.0 mm 0.00 in0.0 mm 0.00 in0.0 mm
11:28 AM 35.4°F1.9°C 28.6°F-1.9°C 76% 4.8 mph S7.7 kmh S 6.0 mph9.7 kmh 30.25 in1024.4 mb 0.00 in0.0 mm 0.00 in0.0 mm 0.00 in0.0 mm
11:22 AM 34.9°F1.6°C 28.7°F-1.8°C 78% 4.7 mph SSW7.6 kmh SSW 5.0 mph8.0 kmh 30.25 in1024.4 mb 0.00 in0.0 mm 0.00 in0.0 mm 0.00 in0.0 mm
11:16 AM 34.0°F1.1°C 28.2°F-2.1°C 79% 4.6 mph SSW7.4 kmh SSW 6.0 mph9.7 kmh 30.25 in1024.4 mb 0.00 in0.0 mm 0.00 in0.0 mm 0.00 in0.0 mm
11:10 AM 33.4°F0.8°C 27.9°F-2.3°C 80% 4.5 mph SE7.2 kmh SE 5.0 mph8.0 kmh 30.26 in1024.7 mb 0.00 in0.0 mm 0.00 in0.0 mm 0.00 in0.0 mm
11:04 AM 32.9°F0.5°C 27.5°F-2.5°C 80% 6.0 mph S9.7 kmh S 7.0 mph11.3 kmh 30.27 in1025.1 mb 0.00 in0.0 mm 0.00 in0.0 mm 0.00 in0.0 mm
10:58 AM 32.6°F0.3°C 27.4°F-2.6°C 81% 5.3 mph S8.5 kmh S 7.0 mph11.3 kmh 30.27 in1025.1 mb 0.00 in0.0 mm 0.00 in0.0 mm 0.00 in0.0 mm
10:52 AM 32.4°F0.2°C 27.2°F-2.7°C 81% 5.1 mph SSE8.2 kmh SSE 7.0 mph11.3 kmh 30.27 in1025.1 mb 0.00 in0.0 mm 0.00 in0.0 mm 0.00 in0.0 mm
10:46 AM 31.9°F-0.1°C 26.7°F-2.9°C 81% 4.7 mph SSW7.6 kmh SSW 5.0 mph8.0 kmh 30.27 in1025.1 mb 0.00 in0.0 mm 0.00 in0.0 mm 0.00 in0.0 mm
10:40 AM 31.6°F-0.2°C 26.8°F-2.9°C 82% 4.2 mph SE6.8 kmh SE 6.0 mph9.7 kmh 30.27 in1025.1 mb 0.00 in0.0 mm 0.00 in0.0 mm 0.00 in0.0 mm
10:34 AM 31.1°F-0.5°C 26.6°F-3.0°C 83% 4.0 mph S6.4 kmh S 5.0 mph8.0 kmh 30.27 in1025.1 mb 0.00 in0.0 mm 0.00 in0.0 mm 0.00 in0.0 mm
10:28 AM 30.7°F-0.7°C 26.2°F-3.2°C 83% 5.0 mph SSW8.0 kmh SSW 6.0 mph9.7 kmh 30.27 in1025.1 mb 0.00 in0.0 mm 0.00 in0.0 mm 0.00 in0.0 mm
10:22 AM 30.3°F-0.9°C 25.8°F-3.4°C 83% 5.6 mph S9.0 kmh S 6.0 mph9.7 kmh 30.27 in1025.1 mb 0.00 in0.0 mm 0.00 in0.0 mm 0.00 in0.0 mm
10:16 AM 29.6°F-1.3°C 25.9°F-3.4°C 86% 4.3 mph S6.9 kmh S 5.0 mph8.0 kmh 30.27 in1025.1 mb 0.00 in0.0 mm 0.00 in0.0 mm 0.00 in0.0 mm
10:10 AM 28.8°F-1.8°C 25.2°F-3.8°C 86% 5.1 mph SSW8.2 kmh SSW 6.0 mph9.7 kmh 30.28 in1025.4 mb 0.00 in0.0 mm 0.00 in0.0 mm 0.00 in0.0 mm
10:04 AM 28.2°F-2.1°C 25.1°F-3.8°C 88% 4.3 mph SSE6.9 kmh SSE 5.0 mph8.0 kmh 30.28 in1025.4 mb 0.00 in0.0 mm 0.00 in0.0 mm 0.00 in0.0 mm
09:58 AM 27.7°F-2.4°C 24.6°F-4.1°C 88% 4.6 mph S7.4 kmh S 5.0 mph8.0 kmh 30.28 in1025.4 mb 0.00 in0.0 mm 0.00 in0.0 mm 0.00 in0.0 mm
09:52 AM 27.3°F-2.6°C 24.9°F-3.9°C 91% 4.0 mph SSW6.4 kmh SSW 4.0 mph6.4 kmh 30.28 in1025.4 mb 0.00 in0.0 mm 0.00 in0.0 mm 0.00 in0.0 mm
09:46 AM 26.7°F-2.9°C 24.4°F-4.2°C 91% 4.7 mph S7.6 kmh S 5.0 mph8.0 kmh 30.28 in1025.4 mb 0.00 in0.0 mm 0.00 in0.0 mm 0.00 in0.0 mm
09:40 AM 26.0°F-3.3°C 24.3°F-4.3°C 93% 5.1 mph S8.2 kmh S 6.0 mph9.7 kmh 30.28 in1025.4 mb 0.00 in0.0 mm 0.00 in0.0 mm 0.00 in0.0 mm
09:34 AM 25.0°F-3.9°C 23.6°F-4.7°C 94% 4.6 mph S7.4 kmh S 5.0 mph8.0 kmh 30.27 in1025.1 mb 0.00 in0.0 mm 0.00 in0.0 mm 0.00 in0.0 mm
09:28 AM 24.5°F-4.2°C 23.5°F-4.7°C 96% 3.3 mph SSW5.3 kmh SSW 4.0 mph6.4 kmh 30.28 in1025.4 mb 0.00 in0.0 mm 0.00 in0.0 mm 0.00 in0.0 mm
09:22 AM 24.0°F-4.4°C 23.0°F-5.0°C 96% 4.3 mph SSW6.9 kmh SSW 5.0 mph8.0 kmh 30.27 in1025.1 mb 0.00 in0.0 mm 0.00 in0.0 mm 0.00 in0.0 mm
09:16 AM 23.4°F-4.8°C 22.4°F-5.3°C 96% 2.4 mph S3.9 kmh S 3.0 mph4.8 kmh 30.29 in1025.7 mb 0.00 in0.0 mm 0.00 in0.0 mm 0.00 in0.0 mm
09:10 AM 22.8°F-5.1°C 22.3°F-5.4°C 98% 3.2 mph SSW5.1 kmh SSW 4.0 mph6.4 kmh 30.28 in1025.4 mb 0.00 in0.0 mm 0.00 in0.0 mm 0.00 in0.0 mm
09:04 AM 22.4°F-5.3°C 21.9°F-5.6°C 98% 3.3 mph SSW5.3 kmh SSW 4.0 mph6.4 kmh 30.28 in1025.4 mb 0.00 in0.0 mm 0.00 in0.0 mm 0.00 in0.0 mm
08:58 AM 21.8°F-5.7°C 21.3°F-5.9°C 98% 3.7 mph S6.0 kmh S 4.0 mph6.4 kmh 30.29 in1025.7 mb 0.00 in0.0 mm 0.00 in0.0 mm 0.00 in0.0 mm
08:52 AM 21.0°F-6.1°C 20.5°F-6.4°C 98% 4.0 mph S6.4 kmh S 5.0 mph8.0 kmh 30.28 in1025.4 mb 0.00 in0.0 mm 0.00 in0.0 mm 0.00 in0.0 mm
08:46 AM 20.7°F-6.3°C 20.2°F-6.6°C 98% 3.8 mph S6.1 kmh S 4.0 mph6.4 kmh 30.28 in1025.4 mb 0.00 in0.0 mm 0.00 in0.0 mm 0.00 in0.0 mm
08:40 AM 20.4°F-6.4°C 19.9°F-6.7°C 98% 3.2 mph S5.1 kmh S 4.0 mph6.4 kmh 30.28 in1025.4 mb 0.00 in0.0 mm 0.00 in0.0 mm 0.00 in0.0 mm
08:34 AM 20.0°F-6.7°C 19.5°F-6.9°C 98% 3.2 mph S5.1 kmh S 4.0 mph6.4 kmh 30.28 in1025.4 mb 0.00 in0.0 mm 0.00 in0.0 mm 0.00 in0.0 mm
08:28 AM 20.0°F-6.7°C 19.5°F-6.9°C 98% 3.6 mph S5.8 kmh S 4.0 mph6.4 kmh 30.28 in1025.4 mb 0.00 in0.0 mm 0.00 in0.0 mm 0.00 in0.0 mm
08:22 AM 19.6°F-6.9°C 19.1°F-7.2°C 98% 3.2 mph SSW5.1 kmh SSW 4.0 mph6.4 kmh 30.28 in1025.4 mb 0.00 in0.0 mm 0.00 in0.0 mm 0.00 in0.0 mm
08:16 AM 19.6°F-6.9°C 19.1°F-7.2°C 98% 2.8 mph S4.5 kmh S 3.0 mph4.8 kmh 30.28 in1025.4 mb 0.00 in0.0 mm 0.00 in0.0 mm 0.00 in0.0 mm
08:10 AM 19.0°F-7.2°C 18.5°F-7.5°C 98% 2.2 mph S3.5 kmh S 3.0 mph4.8 kmh 30.29 in1025.7 mb 0.00 in0.0 mm 0.00 in0.0 mm 0.00 in0.0 mm
08:04 AM 18.8°F-7.3°C 18.3°F-7.6°C 98% 3.1 mph SSW5.0 kmh SSW 4.0 mph6.4 kmh 30.28 in1025.4 mb 0.00 in0.0 mm 0.00 in0.0 mm 0.00 in0.0 mm
07:58 AM 18.8°F-7.3°C 18.3°F-7.6°C 98% 2.4 mph SSW3.9 kmh SSW 3.0 mph4.8 kmh 30.29 in1025.7 mb 0.00 in0.0 mm 0.00 in0.0 mm 0.00 in0.0 mm
07:52 AM 18.8°F-7.3°C 18.3°F-7.6°C 98% 3.0 mph SSW4.8 kmh SSW 3.0 mph4.8 kmh 30.29 in1025.7 mb 0.00 in0.0 mm 0.00 in0.0 mm 0.00 in0.0 mm
07:46 AM 18.5°F-7.5°C 18.0°F-7.8°C 98% 2.5 mph SSW4.0 kmh SSW 3.0 mph4.8 kmh 30.29 in1025.7 mb 0.00 in0.0 mm 0.00 in0.0 mm 0.00 in0.0 mm
07:40 AM 18.4°F-7.6°C 17.9°F-7.8°C 98% 2.2 mph S3.5 kmh S 3.0 mph4.8 kmh 30.29 in1025.7 mb 0.00 in0.0 mm 0.00 in0.0 mm 0.00 in0.0 mm
07:34 AM 18.4°F-7.6°C 17.9°F-7.8°C 98% 1.8 mph S2.9 kmh S 2.0 mph3.2 kmh 30.29 in1025.7 mb 0.00 in0.0 mm 0.00 in0.0 mm 0.00 in0.0 mm
07:28 AM 18.2°F-7.7°C 17.7°F-7.9°C 98% 2.3 mph S3.7 kmh S 3.0 mph4.8 kmh 30.30 in1026.1 mb 0.00 in0.0 mm 0.00 in0.0 mm 0.00 in0.0 mm
04:28 AM 18.7°F-7.4°C 18.3°F-7.6°C 98% 1.1 mph S1.8 kmh S 2.0 mph3.2 kmh 30.27 in1025.1 mb 0.00 in0.0 mm 0.00 in0.0 mm 0.00 in0.0 mm
04:22 AM 19.0°F-7.2°C 18.5°F-7.5°C 98% 1.2 mph S1.9 kmh S 2.0 mph3.2 kmh 30.28 in1025.4 mb 0.00 in0.0 mm 0.00 in0.0 mm 0.00 in0.0 mm
04:16 AM 19.0°F-7.2°C 18.5°F-7.5°C 98% 1.1 mph S1.8 kmh S 2.0 mph3.2 kmh 30.28 in1025.4 mb 0.00 in0.0 mm 0.00 in0.0 mm 0.00 in0.0 mm
04:10 AM 18.8°F-7.3°C 18.3°F-7.6°C 98% - N N -- 30.28 in1025.4 mb 0.00 in0.0 mm 0.00 in0.0 mm 0.00 in0.0 mm
04:04 AM 18.7°F-7.4°C 18.2°F-7.7°C 98% 1.0 mph S1.6 kmh S 1.0 mph1.6 kmh 30.28 in1025.4 mb 0.00 in0.0 mm 0.00 in0.0 mm 0.00 in0.0 mm
03:58 AM 18.4°F-7.6°C 17.9°F-7.8°C 98% 1.0 mph N1.6 kmh N 1.0 mph1.6 kmh 30.28 in1025.4 mb 0.00 in0.0 mm 0.00 in0.0 mm 0.00 in0.0 mm
03:52 AM 18.1°F-7.7°C 17.6°F-8.0°C 98% - N N -- 30.28 in1025.4 mb 0.00 in0.0 mm 0.00 in0.0 mm 0.00 in0.0 mm
03:46 AM 18.1°F-7.7°C 17.6°F-8.0°C 98% - N N -- 30.28 in1025.4 mb 0.00 in0.0 mm 0.00 in0.0 mm 0.00 in0.0 mm
03:40 AM 18.1°F-7.7°C 17.6°F-8.0°C 98% - N N -- 30.28 in1025.4 mb 0.00 in0.0 mm 0.00 in0.0 mm 0.00 in0.0 mm
03:34 AM 17.9°F-7.8°C 17.4°F-8.1°C 98% - N N -- 30.28 in1025.4 mb 0.00 in0.0 mm 0.00 in0.0 mm 0.00 in0.0 mm
03:28 AM 17.9°F-7.8°C 17.4°F-8.1°C 98% - N N -- 30.29 in1025.7 mb 0.00 in0.0 mm 0.00 in0.0 mm 0.00 in0.0 mm
03:22 AM 18.1°F-7.7°C 17.6°F-8.0°C 98% 1.0 mph SSW1.6 kmh SSW 1.0 mph1.6 kmh 30.29 in1025.7 mb 0.00 in0.0 mm 0.00 in0.0 mm 0.00 in0.0 mm
03:16 AM 18.1°F-7.7°C 17.6°F-8.0°C 98% 1.0 mph S1.6 kmh S 1.0 mph1.6 kmh 30.29 in1025.7 mb 0.00 in0.0 mm 0.00 in0.0 mm 0.00 in0.0 mm
03:10 AM 18.2°F-7.7°C 17.7°F-7.9°C 98% 1.5 mph S2.4 kmh S 2.0 mph3.2 kmh 30.29 in1025.7 mb 0.00 in0.0 mm 0.00 in0.0 mm 0.00 in0.0 mm
03:04 AM 18.1°F-7.7°C 17.6°F-8.0°C 98% 2.0 mph SSW3.2 kmh SSW 2.0 mph3.2 kmh 30.29 in1025.7 mb 0.00 in0.0 mm 0.00 in0.0 mm 0.00 in0.0 mm
02:58 AM 18.2°F-7.7°C 17.7°F-7.9°C 98% - N N -- 30.29 in1025.7 mb 0.00 in0.0 mm 0.00 in0.0 mm 0.00 in0.0 mm
02:52 AM 18.5°F-7.5°C 18.0°F-7.8°C 98% 1.0 mph S1.6 kmh S 1.0 mph1.6 kmh 30.30 in1026.1 mb 0.00 in0.0 mm 0.00 in0.0 mm 0.00 in0.0 mm
02:46 AM 18.5°F-7.5°C 18.0°F-7.8°C 98% 1.0 mph S1.6 kmh S 1.0 mph1.6 kmh 30.30 in1026.1 mb 0.00 in0.0 mm 0.00 in0.0 mm 0.00 in0.0 mm
02:40 AM 18.5°F-7.5°C 18.0°F-7.8°C 98% 1.0 mph S1.6 kmh S 1.0 mph1.6 kmh 30.30 in1026.1 mb 0.00 in0.0 mm 0.00 in0.0 mm 0.00 in0.0 mm
02:34 AM 18.5°F-7.5°C 18.0°F-7.8°C 98% 1.0 mph SSW1.6 kmh SSW 1.0 mph1.6 kmh 30.30 in1026.1 mb 0.00 in0.0 mm 0.00 in0.0 mm 0.00 in0.0 mm
02:28 AM 18.6°F-7.4°C 18.1°F-7.7°C 98% - N N -- 30.30 in1026.1 mb 0.00 in0.0 mm 0.00 in0.0 mm 0.00 in0.0 mm
02:22 AM 18.8°F-7.3°C 18.3°F-7.6°C 98% 1.0 mph S1.6 kmh S 1.0 mph1.6 kmh 30.30 in1026.1 mb 0.00 in0.0 mm 0.00 in0.0 mm 0.00 in0.0 mm
02:16 AM 18.8°F-7.3°C 18.3°F-7.6°C 98% 1.9 mph S3.1 kmh S 2.0 mph3.2 kmh 30.30 in1026.1 mb 0.00 in0.0 mm 0.00 in0.0 mm 0.00 in0.0 mm
02:10 AM 19.2°F-7.1°C 18.7°F-7.4°C 98% 1.0 mph SSW1.6 kmh SSW 1.0 mph1.6 kmh 30.30 in1026.1 mb 0.00 in0.0 mm 0.00 in0.0 mm 0.00 in0.0 mm
02:04 AM 19.3°F-7.1°C 18.8°F-7.3°C 98% 1.0 mph S1.6 kmh S 1.0 mph1.6 kmh 30.29 in1025.7 mb 0.00 in0.0 mm 0.00 in0.0 mm 0.00 in0.0 mm
01:58 AM 19.7°F-6.8°C 19.3°F-7.1°C 98% 1.0 mph S1.6 kmh S 1.0 mph1.6 kmh 30.29 in1025.7 mb 0.00 in0.0 mm 0.00 in0.0 mm 0.00 in0.0 mm
01:52 AM 20.1°F-6.6°C 19.6°F-6.9°C 98% 1.0 mph SSW1.6 kmh SSW 1.0 mph1.6 kmh 30.29 in1025.7 mb 0.00 in0.0 mm 0.00 in0.0 mm 0.00 in0.0 mm
01:46 AM 20.4°F-6.4°C 19.9°F-6.7°C 98% 1.0 mph S1.6 kmh S 1.0 mph1.6 kmh 30.29 in1025.7 mb 0.00 in0.0 mm 0.00 in0.0 mm 0.00 in0.0 mm
01:40 AM 20.7°F-6.3°C 20.2°F-6.6°C 98% 1.0 mph S1.6 kmh S 1.0 mph1.6 kmh 30.29 in1025.7 mb 0.00 in0.0 mm 0.00 in0.0 mm 0.00 in0.0 mm
01:34 AM 20.4°F-6.4°C 19.9°F-6.7°C 98% 1.0 mph S1.6 kmh S 1.0 mph1.6 kmh 30.29 in1025.7 mb 0.00 in0.0 mm 0.00 in0.0 mm 0.00 in0.0 mm
01:28 AM 19.6°F-6.9°C 19.1°F-7.2°C 98% - N N -- 30.29 in1025.7 mb 0.00 in0.0 mm 0.00 in0.0 mm 0.00 in0.0 mm
01:22 AM 19.6°F-6.9°C 19.1°F-7.2°C 98% - N N -- 30.29 in1025.7 mb 0.00 in0.0 mm 0.00 in0.0 mm 0.00 in0.0 mm
01:16 AM 19.8°F-6.8°C 19.3°F-7.1°C 98% - N N -- 30.29 in1025.7 mb 0.00 in0.0 mm 0.00 in0.0 mm 0.00 in0.0 mm
01:10 AM 19.8°F-6.8°C 19.3°F-7.1°C 98% - N N -- 30.29 in1025.7 mb 0.00 in0.0 mm 0.00 in0.0 mm 0.00 in0.0 mm
01:04 AM 20.2°F-6.6°C 19.7°F-6.8°C 98% - N N -- 30.29 in1025.7 mb 0.00 in0.0 mm 0.00 in0.0 mm 0.00 in0.0 mm
12:58 AM 20.4°F-6.4°C 19.9°F-6.7°C 98% - N N -- 30.29 in1025.7 mb 0.00 in0.0 mm 0.00 in0.0 mm 0.00 in0.0 mm
12:52 AM 20.7°F-6.3°C 20.2°F-6.6°C 98% - N N -- 30.30 in1026.1 mb 0.00 in0.0 mm 0.00 in0.0 mm 0.00 in0.0 mm
12:46 AM 20.7°F-6.3°C 20.2°F-6.6°C 98% - N N -- 30.30 in1026.1 mb 0.00 in0.0 mm 0.00 in0.0 mm 0.00 in0.0 mm
12:40 AM 20.7°F-6.3°C 20.2°F-6.6°C 98% - N N -- 30.30 in1026.1 mb 0.00 in0.0 mm 0.00 in0.0 mm 0.00 in0.0 mm
12:34 AM 20.7°F-6.3°C 20.2°F-6.6°C 98% 1.1 mph S1.8 kmh S 2.0 mph3.2 kmh 30.30 in1026.1 mb 0.00 in0.0 mm 0.00 in0.0 mm 0.00 in0.0 mm
12:28 AM 21.3°F-5.9°C 20.8°F-6.2°C 98% 1.0 mph SSW1.6 kmh SSW 1.0 mph1.6 kmh 30.30 in1026.1 mb 0.00 in0.0 mm 0.00 in0.0 mm 0.00 in0.0 mm
12:22 AM 21.3°F-5.9°C 20.8°F-6.2°C 98% 1.9 mph SSW3.1 kmh SSW 2.0 mph3.2 kmh 30.30 in1026.1 mb 0.00 in0.0 mm 0.00 in0.0 mm 0.00 in0.0 mm
12:16 AM 21.3°F-5.9°C 20.8°F-6.2°C 98% 1.0 mph S1.6 kmh S 1.0 mph1.6 kmh 30.30 in1026.1 mb 0.00 in0.0 mm 0.00 in0.0 mm 0.00 in0.0 mm
12:10 AM 21.3°F-5.9°C 20.8°F-6.2°C 98% - N N -- 30.30 in1026.1 mb 0.00 in0.0 mm 0.00 in0.0 mm 0.00 in0.0 mm
12:04 AM 21.0°F-6.1°C 20.5°F-6.4°C 98% - N N -- 30.30 in1026.1 mb 0.00 in0.0 mm 0.00 in0.0 mm 0.00 in0.0 mm